createdAt,value
2017-01-11T00:00:42.154Z,721.78
2017-01-11T00:01:42.131Z,721.76
2017-01-11T00:02:42.109Z,721.76
2017-01-11T00:03:42.086Z,721.83
2017-01-11T00:04:42.058Z,721.83
2017-01-11T00:05:42.034Z,721.87
2017-01-11T00:06:42.010Z,721.89
2017-01-11T00:07:41.985Z,721.81
2017-01-11T00:08:41.965Z,721.82
2017-01-11T00:09:41.938Z,721.83
2017-01-11T00:10:41.914Z,721.85
2017-01-11T00:11:41.889Z,721.86
2017-01-11T00:12:41.866Z,721.85
2017-01-11T00:13:41.845Z,721.79
2017-01-11T00:14:41.821Z,721.78
2017-01-11T00:15:41.797Z,721.8
2017-01-11T00:16:41.773Z,721.81
2017-01-11T00:17:41.750Z,721.76
2017-01-11T00:18:41.725Z,721.75
2017-01-11T00:19:41.701Z,721.75
2017-01-11T00:20:41.675Z,721.69
2017-01-11T00:21:41.651Z,721.71
2017-01-11T00:22:41.626Z,721.85
2017-01-11T00:23:41.603Z,721.86
2017-01-11T00:24:41.582Z,721.84
2017-01-11T00:25:41.569Z,721.75
2017-01-11T00:26:41.530Z,721.81
2017-01-11T00:27:41.507Z,721.84
2017-01-11T00:28:41.483Z,721.86
2017-01-11T00:29:41.464Z,721.83
2017-01-11T00:30:41.437Z,721.86
2017-01-11T00:31:41.415Z,721.71
2017-01-11T00:32:41.386Z,721.77
2017-01-11T00:33:41.360Z,721.92
2017-01-11T00:34:41.340Z,721.97
2017-01-11T00:35:41.313Z,721.95
2017-01-11T00:36:41.288Z,721.96
2017-01-11T00:37:41.266Z,722.05
2017-01-11T00:38:41.242Z,721.95
2017-01-11T00:39:41.214Z,721.81
2017-01-11T00:40:41.189Z,721.92
2017-01-11T00:41:41.164Z,721.74
2017-01-11T00:42:41.140Z,721.94
2017-01-11T00:43:41.118Z,721.95
2017-01-11T00:44:41.094Z,721.96
2017-01-11T00:45:41.068Z,722.05
2017-01-11T00:46:41.043Z,722.11
2017-01-11T00:47:41.015Z,722.11
2017-01-11T00:48:40.990Z,722.1
2017-01-11T00:49:40.966Z,722.05
2017-01-11T00:50:40.942Z,722.06
2017-01-11T00:51:40.916Z,722.08
2017-01-11T00:52:40.896Z,722.07
2017-01-11T00:53:40.871Z,722
2017-01-11T00:54:40.847Z,721.94
2017-01-11T00:55:40.823Z,721.98
2017-01-11T00:56:40.798Z,722.01
2017-01-11T00:57:40.772Z,721.98
2017-01-11T00:58:40.749Z,721.92
2017-01-11T00:59:40.720Z,721.99
2017-01-11T01:00:40.698Z,722.06
2017-01-11T01:01:40.674Z,722.06
2017-01-11T01:02:40.650Z,722.02
2017-01-11T01:03:40.621Z,722.1
2017-01-11T01:04:40.600Z,722.12
2017-01-11T01:05:40.572Z,722.12
2017-01-11T01:06:40.550Z,722.1
2017-01-11T01:07:40.523Z,722.19
2017-01-11T01:08:40.499Z,722.19
2017-01-11T01:09:40.475Z,722.18
2017-01-11T01:10:40.451Z,722.24
2017-01-11T01:11:40.429Z,722.19
2017-01-11T01:12:40.409Z,722.14
2017-01-11T01:13:40.380Z,722.13
2017-01-11T01:14:40.356Z,722.15
2017-01-11T01:15:40.330Z,722.2
2017-01-11T01:16:40.308Z,722.22
2017-01-11T01:17:40.283Z,722.19
2017-01-11T01:18:40.259Z,722.22
2017-01-11T01:19:40.235Z,722.24
2017-01-11T01:20:40.207Z,722.29
2017-01-11T01:21:40.186Z,722.28
2017-01-11T01:22:40.162Z,722.26
2017-01-11T01:23:40.134Z,722.26
2017-01-11T01:24:40.110Z,722.21
2017-01-11T01:25:40.089Z,722.15
2017-01-11T01:26:40.065Z,722.17
2017-01-11T01:27:40.038Z,722.17
2017-01-11T01:28:40.013Z,722.22
2017-01-11T01:29:39.989Z,722.27
2017-01-11T01:30:39.966Z,722.21
2017-01-11T01:31:39.944Z,722.11
2017-01-11T01:32:39.920Z,722.11
2017-01-11T01:33:39.893Z,722.18
2017-01-11T01:34:39.869Z,722.2
2017-01-11T01:35:39.848Z,722.17
2017-01-11T01:36:39.824Z,722.13
2017-01-11T01:37:39.800Z,722.18
2017-01-11T01:38:39.775Z,722.27
2017-01-11T01:39:39.747Z,722.26
2017-01-11T01:40:39.726Z,722.28
2017-01-11T01:41:39.701Z,722.27
2017-01-11T01:42:39.676Z,722.3
2017-01-11T01:43:39.652Z,722.31
2017-01-11T01:44:39.625Z,722.34
2017-01-11T01:45:39.601Z,722.33
2017-01-11T01:46:39.579Z,722.32
2017-01-11T01:47:39.555Z,722.26
2017-01-11T01:48:39.528Z,722.29
2017-01-11T01:49:39.504Z,722.22
2017-01-11T01:50:39.482Z,722.23
2017-01-11T01:51:39.455Z,722.24
2017-01-11T01:52:39.430Z,722.28
2017-01-11T01:53:39.405Z,722.35
2017-01-11T01:54:39.385Z,722.3
2017-01-11T01:55:39.357Z,722.2
2017-01-11T01:56:39.333Z,722.36
2017-01-11T01:57:39.308Z,722.25
2017-01-11T01:58:39.287Z,722.25
2017-01-11T01:59:39.262Z,722.28
2017-01-11T02:00:39.238Z,722.3
2017-01-11T02:01:39.213Z,722.28
2017-01-11T02:02:39.190Z,722.33
2017-01-11T02:03:39.164Z,722.25
2017-01-11T02:04:39.139Z,722.28
2017-01-11T02:05:39.117Z,722.2
2017-01-11T02:06:39.090Z,722.19
2017-01-11T02:07:39.063Z,721.95
2017-01-11T02:08:39.040Z,722.3
2017-01-11T02:09:39.013Z,722.35
2017-01-11T02:10:38.988Z,722.32
2017-01-11T02:11:38.964Z,722.12
2017-01-11T02:12:38.941Z,722.33
2017-01-11T02:13:38.916Z,722.37
2017-01-11T02:14:38.889Z,722.26
2017-01-11T02:15:38.867Z,722.34
2017-01-11T02:16:38.841Z,722.23
2017-01-11T02:17:38.817Z,722.13
2017-01-11T02:18:38.792Z,722.04
2017-01-11T02:19:38.767Z,722.12
2017-01-11T02:20:38.739Z,722.34
2017-01-11T02:21:38.717Z,722.31
2017-01-11T02:22:38.693Z,722.24
2017-01-11T02:23:38.664Z,722.26
2017-01-11T02:24:38.642Z,722.28
2017-01-11T02:25:38.618Z,722.18
2017-01-11T02:26:38.589Z,722.22
2017-01-11T02:27:38.567Z,722.25
2017-01-11T02:28:38.540Z,722.38
2017-01-11T02:29:38.515Z,722.3
2017-01-11T02:30:38.489Z,722.27
2017-01-11T02:31:38.464Z,722.16
2017-01-11T02:32:38.443Z,722.2
2017-01-11T02:33:38.414Z,722.24
2017-01-11T02:34:38.392Z,722.35
2017-01-11T02:35:38.364Z,722.36
2017-01-11T02:36:38.339Z,722.32
2017-01-11T02:37:38.316Z,722.12
2017-01-11T02:38:38.292Z,722.07
2017-01-11T02:39:38.263Z,722.18
2017-01-11T02:40:38.243Z,722.08
2017-01-11T02:41:38.212Z,722.06
2017-01-11T02:42:38.190Z,722.11
2017-01-11T02:43:38.165Z,722.13
2017-01-11T02:44:38.140Z,722.34
2017-01-11T02:45:38.111Z,722.33
2017-01-11T02:46:38.089Z,722.32
2017-01-11T02:47:38.063Z,722.37
2017-01-11T02:48:38.037Z,722.19
2017-01-11T02:49:38.008Z,721.83
2017-01-11T02:50:37.983Z,722.21
2017-01-11T02:51:37.957Z,722.29
2017-01-11T02:52:37.931Z,722.37
2017-01-11T02:53:37.904Z,722.36
2017-01-11T02:54:37.880Z,722.15
2017-01-11T02:55:37.856Z,722.26
2017-01-11T02:56:37.831Z,722.24
2017-01-11T02:57:37.802Z,722.3
2017-01-11T02:58:37.779Z,722.34
2017-01-11T02:59:37.753Z,722.29
2017-01-11T03:00:37.725Z,721.92
2017-01-11T03:01:37.699Z,722.24
2017-01-11T03:02:37.677Z,722.4
2017-01-11T03:03:37.647Z,722.37
2017-01-11T03:04:37.621Z,722.22
2017-01-11T03:05:37.599Z,722.38
2017-01-11T03:06:37.569Z,722.07
2017-01-11T03:07:37.547Z,722.15
2017-01-11T03:08:37.517Z,722.15
2017-01-11T03:09:37.492Z,722.23
2017-01-11T03:10:37.468Z,722.07
2017-01-11T03:11:37.440Z,722.37
2017-01-11T03:12:37.417Z,722.23
2017-01-11T03:13:37.391Z,721.98
2017-01-11T03:14:37.365Z,722.4
2017-01-11T03:15:37.335Z,722.37
2017-01-11T03:16:37.310Z,722.04
2017-01-11T03:17:37.287Z,722.34
2017-01-11T03:18:37.257Z,722.39
2017-01-11T03:19:37.232Z,722.25
2017-01-11T03:20:37.209Z,722.26
2017-01-11T03:21:37.183Z,721.98
2017-01-11T03:22:37.154Z,722.31
2017-01-11T03:23:37.128Z,722.07
2017-01-11T03:24:37.102Z,722.31
2017-01-11T03:25:37.078Z,721.99
2017-01-11T03:26:37.052Z,722.23
2017-01-11T03:27:37.026Z,722.08
2017-01-11T03:28:36.996Z,722.41
2017-01-11T03:29:36.971Z,722.1
2017-01-11T03:30:36.948Z,722.22
2017-01-11T03:31:36.919Z,722.2
2017-01-11T03:32:36.892Z,722.26
2017-01-11T03:33:36.867Z,722.31
2017-01-11T03:34:36.841Z,722.21
2017-01-11T03:35:36.818Z,722.2
2017-01-11T03:36:36.790Z,722.07
2017-01-11T03:37:36.761Z,721.98
2017-01-11T03:38:36.739Z,722.3
2017-01-11T03:39:36.709Z,722.43
2017-01-11T03:40:36.686Z,722.22
2017-01-11T03:41:36.657Z,722.12
2017-01-11T03:42:36.636Z,722.07
2017-01-11T03:43:36.607Z,722.1
2017-01-11T03:44:36.578Z,722.21
2017-01-11T03:45:36.553Z,722.36
2017-01-11T03:46:36.530Z,722.26
2017-01-11T03:47:36.503Z,722.25
2017-01-11T03:48:36.478Z,722.28
2017-01-11T03:49:36.452Z,722.31
2017-01-11T03:50:36.425Z,722.1
2017-01-11T03:51:36.399Z,722.19
2017-01-11T03:52:36.374Z,722.23
2017-01-11T03:53:36.345Z,722.05
2017-01-11T03:54:36.322Z,722.19
2017-01-11T03:55:36.296Z,722.32
2017-01-11T03:56:36.270Z,722.23
2017-01-11T03:57:36.241Z,722.15
2017-01-11T03:58:36.218Z,722.32
2017-01-11T03:59:36.192Z,722
2017-01-11T04:00:36.167Z,722.37
2017-01-11T04:01:36.140Z,722.23
2017-01-11T04:02:36.115Z,722.14
2017-01-11T04:03:36.086Z,722.17
2017-01-11T04:04:36.060Z,722.11
2017-01-11T04:05:36.034Z,722.27
2017-01-11T04:06:36.011Z,722.13
2017-01-11T04:07:35.985Z,722.12
2017-01-11T04:08:35.956Z,722.35
2017-01-11T04:09:35.933Z,722.47
2017-01-11T04:10:35.908Z,722.27
2017-01-11T04:11:35.878Z,722.25
2017-01-11T04:12:35.854Z,722.26
2017-01-11T04:13:35.828Z,722.25
2017-01-11T04:14:35.799Z,722.21
2017-01-11T04:15:35.979Z,722.28
2017-01-11T04:16:35.750Z,722.21
2017-01-11T04:17:35.721Z,722.28
2017-01-11T04:18:35.696Z,722.22
2017-01-11T04:19:35.673Z,722.36
2017-01-11T04:20:35.644Z,722.43
2017-01-11T04:21:35.622Z,722.25
2017-01-11T04:22:35.595Z,722.29
2017-01-11T04:23:35.566Z,722.26
2017-01-11T04:24:35.543Z,722.31
2017-01-11T04:25:35.517Z,722.23
2017-01-11T04:26:35.488Z,722.39
2017-01-11T04:27:35.465Z,722.34
2017-01-11T04:28:35.436Z,722.35
2017-01-11T04:29:35.413Z,722.18
2017-01-11T04:30:35.383Z,722.43
2017-01-11T04:31:35.361Z,722.54
2017-01-11T04:32:35.335Z,722.49
2017-01-11T04:33:35.306Z,722.51
2017-01-11T04:34:35.279Z,722.61
2017-01-11T04:35:35.257Z,722.45
2017-01-11T04:36:35.231Z,722.56
2017-01-11T04:37:35.203Z,722.49
2017-01-11T04:38:35.176Z,722.47
2017-01-11T04:39:35.154Z,722.31
2017-01-11T04:40:35.128Z,722.4
2017-01-11T04:41:35.098Z,722.4
2017-01-11T04:42:35.075Z,722.62
2017-01-11T04:43:35.049Z,722.62
2017-01-11T04:44:35.024Z,722.55
2017-01-11T04:45:34.997Z,722.47
2017-01-11T04:46:34.968Z,722.5
2017-01-11T04:47:34.945Z,722.46
2017-01-11T04:48:34.917Z,722.47
2017-01-11T04:49:34.893Z,722.61
2017-01-11T04:50:34.869Z,722.61
2017-01-11T04:51:34.839Z,722.8
2017-01-11T04:52:34.813Z,722.42
2017-01-11T04:53:34.787Z,722.64
2017-01-11T04:54:34.765Z,722.75
2017-01-11T04:55:34.736Z,722.74
2017-01-11T04:56:34.709Z,722.72
2017-01-11T04:57:34.684Z,722.53
2017-01-11T04:58:34.660Z,722.64
2017-01-11T04:59:34.633Z,722.54
2017-01-11T05:00:34.606Z,722.56
2017-01-11T05:01:34.583Z,722.69
2017-01-11T05:02:34.558Z,722.67
2017-01-11T05:03:34.531Z,722.85
2017-01-11T05:04:34.503Z,722.78
2017-01-11T05:05:34.678Z,722.7
2017-01-11T05:06:34.451Z,722.69
2017-01-11T05:07:34.424Z,722.54
2017-01-11T05:08:34.401Z,722.74
2017-01-11T05:09:34.376Z,722.74
2017-01-11T05:10:34.350Z,722.59
2017-01-11T05:11:34.319Z,722.46
2017-01-11T05:12:34.294Z,722.54
2017-01-11T05:13:34.268Z,722.75
2017-01-11T05:14:34.241Z,722.53
2017-01-11T05:15:34.218Z,722.82
2017-01-11T05:16:34.191Z,722.82
2017-01-11T05:17:34.162Z,722.73
2017-01-11T05:18:34.138Z,722.73
2017-01-11T05:19:34.109Z,722.73
2017-01-11T05:20:34.087Z,722.77
2017-01-11T05:21:34.056Z,722.83
2017-01-11T05:22:34.030Z,722.96
2017-01-11T05:23:34.003Z,722.8
2017-01-11T05:24:33.977Z,722.67
2017-01-11T05:25:33.950Z,722.68
2017-01-11T05:26:33.927Z,722.7
2017-01-11T05:27:33.897Z,722.66
2017-01-11T05:28:33.874Z,722.88
2017-01-11T05:29:33.844Z,722.8
2017-01-11T05:30:33.818Z,722.87
2017-01-11T05:31:33.791Z,722.88
2017-01-11T05:32:33.769Z,722.88
2017-01-11T05:33:33.739Z,722.72
2017-01-11T05:34:33.712Z,722.74
2017-01-11T05:35:33.686Z,722.8
2017-01-11T05:36:33.659Z,722.76
2017-01-11T05:37:33.636Z,722.63
2017-01-11T05:38:33.606Z,722.58
2017-01-11T05:39:33.583Z,722.86
2017-01-11T05:40:33.554Z,723.01
2017-01-11T05:41:33.530Z,722.83
2017-01-11T05:42:33.501Z,723
2017-01-11T05:43:33.478Z,723.02
2017-01-11T05:44:33.451Z,722.9
2017-01-11T05:45:33.422Z,722.92
2017-01-11T05:46:33.399Z,723
2017-01-11T05:47:33.369Z,723.14
2017-01-11T05:48:33.343Z,723.06
2017-01-11T05:49:33.319Z,722.95
2017-01-11T05:50:33.293Z,722.93
2017-01-11T05:51:33.266Z,723.04
2017-01-11T05:52:33.246Z,722.95
2017-01-11T05:53:33.214Z,723.11
2017-01-11T05:54:33.185Z,722.82
2017-01-11T05:55:33.162Z,723.07
2017-01-11T05:56:33.132Z,722.98
2017-01-11T05:57:33.109Z,723.02
2017-01-11T05:58:33.079Z,722.89
2017-01-11T05:59:33.053Z,722.95
2017-01-11T06:00:33.030Z,723.11
2017-01-11T06:01:33.001Z,723.08
2017-01-11T06:02:32.976Z,723.01
2017-01-11T06:03:32.950Z,723.15
2017-01-11T06:04:32.924Z,723.06
2017-01-11T06:05:32.893Z,723.07
2017-01-11T06:06:32.871Z,723.11
2017-01-11T06:07:32.845Z,722.86
2017-01-11T06:08:32.818Z,723.05
2017-01-11T06:09:32.792Z,723.21
2017-01-11T06:10:32.762Z,723.29
2017-01-11T06:11:32.736Z,723.07
2017-01-11T06:12:32.713Z,723.04
2017-01-11T06:13:32.683Z,723.17
2017-01-11T06:14:32.656Z,723.18
2017-01-11T06:15:32.631Z,722.98
2017-01-11T06:16:32.607Z,723.19
2017-01-11T06:17:32.580Z,722.89
2017-01-11T06:18:32.551Z,723.15
2017-01-11T06:19:32.525Z,723.1
2017-01-11T06:20:32.501Z,722.84
2017-01-11T06:21:32.475Z,723.22
2017-01-11T06:22:32.449Z,722.98
2017-01-11T06:23:32.419Z,723.13
2017-01-11T06:24:32.395Z,723.07
2017-01-11T06:25:32.369Z,723.14
2017-01-11T06:26:32.342Z,723.15
2017-01-11T06:27:32.315Z,722.98
2017-01-11T06:28:32.289Z,723.21
2017-01-11T06:29:32.263Z,723.14
2017-01-11T06:30:32.233Z,723.16
2017-01-11T06:31:32.209Z,723.28
2017-01-11T06:32:32.183Z,723.15
2017-01-11T06:33:32.157Z,723.1
2017-01-11T06:34:32.127Z,723.12
2017-01-11T06:35:32.100Z,723.23
2017-01-11T06:36:32.077Z,723.28
2017-01-11T06:37:32.047Z,723.14
2017-01-11T06:38:32.020Z,723.07
2017-01-11T06:39:31.997Z,723.3
2017-01-11T06:40:31.970Z,723.32
2017-01-11T06:41:31.944Z,723.15
2017-01-11T06:42:31.917Z,723.28
2017-01-11T06:43:31.890Z,723.25
2017-01-11T06:44:31.861Z,723.33
2017-01-11T06:45:31.838Z,723.27
2017-01-11T06:46:31.808Z,723.25
2017-01-11T06:47:31.786Z,723.37
2017-01-11T06:48:31.758Z,723.42
2017-01-11T06:49:31.728Z,723.36
2017-01-11T06:50:31.702Z,723.28
2017-01-11T06:51:31.679Z,723.43
2017-01-11T06:52:31.653Z,723.16
2017-01-11T06:53:31.623Z,723.17
2017-01-11T06:54:31.597Z,723.24
2017-01-11T06:55:31.571Z,723.26
2017-01-11T06:56:31.545Z,723.25
2017-01-11T06:57:31.518Z,723.43
2017-01-11T06:58:31.495Z,723.48
2017-01-11T06:59:31.469Z,723.27
2017-01-11T07:00:31.441Z,723.21
2017-01-11T07:01:31.415Z,723.31
2017-01-11T07:02:31.389Z,723.4
2017-01-11T07:03:31.363Z,723.43
2017-01-11T07:04:31.333Z,723.4
2017-01-11T07:05:31.310Z,723.38
2017-01-11T07:06:31.284Z,723.32
2017-01-11T07:07:31.254Z,723.52
2017-01-11T07:08:31.227Z,723.54
2017-01-11T07:09:31.204Z,723.49
2017-01-11T07:10:31.175Z,723.51
2017-01-11T07:11:31.147Z,723.59
2017-01-11T07:12:31.122Z,723.65
2017-01-11T07:13:31.095Z,723.41
2017-01-11T07:14:31.070Z,723.58
2017-01-11T07:15:31.045Z,723.55
2017-01-11T07:16:31.020Z,723.23
2017-01-11T07:17:30.990Z,723.43
2017-01-11T07:18:30.964Z,723.36
2017-01-11T07:19:30.937Z,723.61
2017-01-11T07:20:30.916Z,723.68
2017-01-11T07:21:30.888Z,723.55
2017-01-11T07:22:30.861Z,723.74
2017-01-11T07:23:30.831Z,723.59
2017-01-11T07:24:30.805Z,723.66
2017-01-11T07:25:30.782Z,723.79
2017-01-11T07:26:30.755Z,723.79
2017-01-11T07:27:30.729Z,723.62
2017-01-11T07:28:30.702Z,723.7
2017-01-11T07:29:30.677Z,723.78
2017-01-11T07:30:30.648Z,723.71
2017-01-11T07:31:30.622Z,723.68
2017-01-11T07:32:30.601Z,723.74
2017-01-11T07:33:30.569Z,723.72
2017-01-11T07:34:30.549Z,723.7
2017-01-11T07:35:30.517Z,723.81
2017-01-11T07:36:30.494Z,723.8
2017-01-11T07:37:30.467Z,723.57
2017-01-11T07:38:30.441Z,723.88
2017-01-11T07:39:30.415Z,723.79
2017-01-11T07:40:30.385Z,723.89
2017-01-11T07:41:30.359Z,723.87
2017-01-11T07:42:30.336Z,723.91
2017-01-11T07:43:30.307Z,723.87
2017-01-11T07:44:30.283Z,723.91
2017-01-11T07:45:30.258Z,724.03
2017-01-11T07:46:30.232Z,724.05
2017-01-11T07:47:30.203Z,724.07
2017-01-11T07:48:30.180Z,724.02
2017-01-11T07:49:30.151Z,724.03
2017-01-11T07:50:30.125Z,724.13
2017-01-11T07:51:30.102Z,724.01
2017-01-11T07:52:30.076Z,724.03
2017-01-11T07:53:30.047Z,724.05
2017-01-11T07:54:30.021Z,724.02
2017-01-11T07:55:29.997Z,723.99
2017-01-11T07:56:29.971Z,723.99
2017-01-11T07:57:29.942Z,724.05
2017-01-11T07:58:29.917Z,723.97
2017-01-11T07:59:29.890Z,724.02
2017-01-11T08:00:29.867Z,723.99
2017-01-11T08:01:29.842Z,724.16
2017-01-11T08:02:29.811Z,724.13
2017-01-11T08:03:29.786Z,724.03
2017-01-11T08:04:29.763Z,724.04
2017-01-11T08:05:29.737Z,724.08
2017-01-11T08:06:29.710Z,724.12
2017-01-11T08:07:29.685Z,724.05
2017-01-11T08:08:29.656Z,724.06
2017-01-11T08:09:29.633Z,724.03
2017-01-11T08:10:29.604Z,723.89
2017-01-11T08:11:29.582Z,724.03
2017-01-11T08:12:29.553Z,724.01
2017-01-11T08:13:29.526Z,723.98
2017-01-11T08:14:29.501Z,723.89
2017-01-11T08:15:29.475Z,724.06
2017-01-11T08:16:29.450Z,723.92
2017-01-11T08:17:29.424Z,723.91
2017-01-11T08:18:29.398Z,723.89
2017-01-11T08:19:29.376Z,723.89
2017-01-11T08:20:29.347Z,723.91
2017-01-11T08:21:29.324Z,724
2017-01-11T08:22:29.295Z,723.74
2017-01-11T08:23:29.273Z,723.83
2017-01-11T08:24:29.244Z,724.06
2017-01-11T08:25:29.218Z,723.92
2017-01-11T08:26:29.193Z,724.03
2017-01-11T08:27:29.167Z,724.1
2017-01-11T08:28:29.144Z,723.98
2017-01-11T08:29:29.115Z,724
2017-01-11T08:30:29.090Z,724.02
2017-01-11T08:31:29.068Z,724.15
2017-01-11T08:32:29.038Z,724.09
2017-01-11T08:33:29.013Z,724.09
2017-01-11T08:34:28.988Z,723.94
2017-01-11T08:35:28.961Z,724.19
2017-01-11T08:36:28.936Z,724.01
2017-01-11T08:37:28.911Z,724.19
2017-01-11T08:38:28.885Z,724.12
2017-01-11T08:39:28.862Z,724.19
2017-01-11T08:40:28.834Z,724.14
2017-01-11T08:41:28.812Z,723.98
2017-01-11T08:42:28.786Z,724.06
2017-01-11T08:43:28.781Z,724.2
2017-01-11T08:44:28.734Z,724.1
2017-01-11T08:45:28.706Z,723.95
2017-01-11T08:46:28.680Z,724.05
2017-01-11T08:47:28.658Z,724.05
2017-01-11T08:48:28.632Z,723.98
2017-01-11T08:49:28.607Z,724.09
2017-01-11T08:50:28.578Z,724.1
2017-01-11T08:51:28.553Z,724.1
2017-01-11T08:52:28.531Z,724.03
2017-01-11T08:53:28.506Z,724.25
2017-01-11T08:54:28.476Z,724.03
2017-01-11T08:55:28.454Z,724.19
2017-01-11T08:56:28.426Z,724.17
2017-01-11T08:57:28.403Z,724.17
2017-01-11T08:58:28.378Z,724.15
2017-01-11T08:59:28.353Z,724.14
2017-01-11T09:00:28.328Z,724.12
2017-01-11T09:01:28.299Z,724.1
2017-01-11T09:02:28.277Z,724.01
2017-01-11T09:03:28.252Z,724.06
2017-01-11T09:04:28.224Z,724.11
2017-01-11T09:05:28.199Z,724.1
2017-01-11T09:06:28.174Z,724.1
2017-01-11T09:07:28.154Z,724.17
2017-01-11T09:08:28.126Z,724.16
2017-01-11T09:09:28.101Z,724.04
2017-01-11T09:10:28.073Z,724.26
2017-01-11T09:11:28.048Z,724.13
2017-01-11T09:12:28.025Z,724.27
2017-01-11T09:13:28.000Z,724.32
2017-01-11T09:14:27.976Z,724.28
2017-01-11T09:15:27.950Z,724.34
2017-01-11T09:16:27.922Z,724.26
2017-01-11T09:17:27.899Z,724.24
2017-01-11T09:18:27.876Z,724.29
2017-01-11T09:19:27.848Z,724.22
2017-01-11T09:20:27.826Z,724.16
2017-01-11T09:21:27.798Z,724.31
2017-01-11T09:22:27.778Z,724.21
2017-01-11T09:23:27.750Z,724.3
2017-01-11T09:24:27.729Z,724.38
2017-01-11T09:25:27.705Z,724.41
2017-01-11T09:26:27.679Z,724.49
2017-01-11T09:27:27.656Z,724.3
2017-01-11T09:28:27.628Z,724.2
2017-01-11T09:29:27.607Z,724.23
2017-01-11T09:30:27.579Z,724.03
2017-01-11T09:31:27.557Z,724.33
2017-01-11T09:32:27.533Z,724.35
2017-01-11T09:33:27.509Z,724.18
2017-01-11T09:34:27.480Z,724.44
2017-01-11T09:35:27.456Z,724.42
2017-01-11T09:36:27.432Z,724.27
2017-01-11T09:37:27.409Z,724.32
2017-01-11T09:38:27.381Z,724.24
2017-01-11T09:39:27.361Z,724.26
2017-01-11T09:40:27.338Z,724.23
2017-01-11T09:41:27.311Z,724.14
2017-01-11T09:42:27.287Z,724.13
2017-01-11T09:43:27.259Z,724.26
2017-01-11T09:44:27.235Z,724.27
2017-01-11T09:45:27.210Z,724.13
2017-01-11T09:46:27.185Z,724.34
2017-01-11T09:47:27.164Z,724.23
2017-01-11T09:48:27.139Z,724.35
2017-01-11T09:49:27.115Z,724.3
2017-01-11T09:50:27.091Z,724.3
2017-01-11T09:51:27.067Z,724.33
2017-01-11T09:52:27.042Z,724.39
2017-01-11T09:53:27.018Z,724.32
2017-01-11T09:54:26.992Z,724.3
2017-01-11T09:55:26.971Z,724.38
2017-01-11T09:56:26.944Z,724.34
2017-01-11T09:57:26.923Z,724.15
2017-01-11T09:58:26.897Z,724.19
2017-01-11T09:59:26.875Z,724.22
2017-01-11T10:00:26.853Z,724.17
2017-01-11T10:01:26.828Z,724.25
2017-01-11T10:02:26.804Z,724.29
2017-01-11T10:03:26.777Z,724.32
2017-01-11T10:04:26.756Z,724.28
2017-01-11T10:05:26.732Z,724.4
2017-01-11T10:06:26.708Z,724.35
2017-01-11T10:07:26.684Z,724.34
2017-01-11T10:08:26.657Z,724.38
2017-01-11T10:09:26.637Z,724.33
2017-01-11T10:10:26.613Z,724.27
2017-01-11T10:11:26.587Z,724.29
2017-01-11T10:12:26.567Z,724.27
2017-01-11T10:13:26.544Z,724.27
2017-01-11T10:14:26.516Z,724.31
2017-01-11T10:15:26.497Z,724.24
2017-01-11T10:16:26.474Z,724.16
2017-01-11T10:17:26.451Z,724.24
2017-01-11T10:18:26.424Z,724.15
2017-01-11T10:19:26.401Z,724.24
2017-01-11T10:20:26.377Z,724.17
2017-01-11T10:21:26.356Z,724.16
2017-01-11T10:22:26.329Z,723.99
2017-01-11T10:23:26.306Z,724.02
2017-01-11T10:24:26.282Z,724.04
2017-01-11T10:25:26.258Z,724.13
2017-01-11T10:26:26.237Z,724.13
2017-01-11T10:27:26.210Z,724.01
2017-01-11T10:28:26.189Z,723.98
2017-01-11T10:29:26.161Z,723.95
2017-01-11T10:30:26.140Z,723.89
2017-01-11T10:31:26.115Z,723.97
2017-01-11T10:32:26.090Z,724.04
2017-01-11T10:33:26.066Z,723.97
2017-01-11T10:34:26.042Z,724
2017-01-11T10:35:26.018Z,723.98
2017-01-11T10:36:25.990Z,723.98
2017-01-11T10:37:25.966Z,724.04
2017-01-11T10:38:25.941Z,724.21
2017-01-11T10:39:25.920Z,724.06
2017-01-11T10:40:25.896Z,724.16
2017-01-11T10:41:25.868Z,724.08
2017-01-11T10:42:25.845Z,724.08
2017-01-11T10:43:25.823Z,724.03
2017-01-11T10:44:25.795Z,723.8
2017-01-11T10:45:25.772Z,724.03
2017-01-11T10:46:25.751Z,724.1
2017-01-11T10:47:25.727Z,724.09
2017-01-11T10:48:25.700Z,724.05
2017-01-11T10:49:25.679Z,724.05
2017-01-11T10:50:25.655Z,724.11
2017-01-11T10:51:25.627Z,724.08
2017-01-11T10:52:25.607Z,724.05
2017-01-11T10:53:25.588Z,724.06
2017-01-11T10:54:25.558Z,724
2017-01-11T10:55:25.535Z,724.07
2017-01-11T10:56:25.512Z,724.1
2017-01-11T10:57:25.488Z,724.07
2017-01-11T10:58:25.460Z,723.99
2017-01-11T10:59:25.437Z,724.09
2017-01-11T11:00:25.417Z,724.03
2017-01-11T11:01:25.392Z,724.03
2017-01-11T11:02:25.369Z,724
2017-01-11T11:03:25.343Z,724.08
2017-01-11T11:04:25.322Z,724.11
2017-01-11T11:05:25.298Z,723.99
2017-01-11T11:06:25.273Z,724.1
2017-01-11T11:07:25.253Z,724.1
2017-01-11T11:08:25.230Z,724.02
2017-01-11T11:09:25.206Z,724.02
2017-01-11T11:10:25.181Z,724.13
2017-01-11T11:11:25.161Z,724.08
2017-01-11T11:12:25.138Z,724.02
2017-01-11T11:13:25.116Z,724.11
2017-01-11T11:14:25.094Z,724.02
2017-01-11T11:15:25.072Z,724.08
2017-01-11T11:16:25.049Z,724
2017-01-11T11:17:25.027Z,724.07
2017-01-11T11:18:25.005Z,723.94
2017-01-11T11:19:24.984Z,723.97
2017-01-11T11:20:24.961Z,724.08
2017-01-11T11:21:24.936Z,724.04
2017-01-11T11:22:24.915Z,723.94
2017-01-11T11:23:24.893Z,723.97
2017-01-11T11:24:24.872Z,723.95
2017-01-11T11:25:24.853Z,723.93
2017-01-11T11:26:24.832Z,723.86
2017-01-11T11:27:24.807Z,723.88
2017-01-11T11:28:24.789Z,723.81
2017-01-11T11:29:24.767Z,723.75
2017-01-11T11:30:24.745Z,723.74
2017-01-11T11:31:24.722Z,723.71
2017-01-11T11:32:24.701Z,723.54
2017-01-11T11:33:24.676Z,723.6
2017-01-11T11:34:24.653Z,723.68
2017-01-11T11:35:24.634Z,723.57
2017-01-11T11:36:24.609Z,723.45
2017-01-11T11:37:24.590Z,723.6
2017-01-11T11:38:24.664Z,723.67
2017-01-11T11:39:24.542Z,723.7
2017-01-11T11:40:24.520Z,723.74
2017-01-11T11:41:24.498Z,723.64
2017-01-11T11:42:24.476Z,723.66
2017-01-11T11:43:24.458Z,723.71
2017-01-11T11:44:24.433Z,723.53
2017-01-11T11:45:24.414Z,723.66
2017-01-11T11:46:24.389Z,723.72
2017-01-11T11:47:24.371Z,723.72
2017-01-11T11:48:24.346Z,723.84
2017-01-11T11:49:24.328Z,723.72
2017-01-11T11:50:24.307Z,723.66
2017-01-11T11:51:24.282Z,723.63
2017-01-11T11:52:24.261Z,723.66
2017-01-11T11:53:24.242Z,723.52
2017-01-11T11:54:24.218Z,723.67
2017-01-11T11:55:24.199Z,723.53
2017-01-11T11:56:24.173Z,723.59
2017-01-11T11:57:24.152Z,723.59
2017-01-11T11:58:24.130Z,723.55
2017-01-11T11:59:24.108Z,723.39
2017-01-11T12:00:24.088Z,723.42
2017-01-11T12:01:24.067Z,723.55
2017-01-11T12:02:24.045Z,723.33
2017-01-11T12:03:24.023Z,723.58
2017-01-11T12:04:24.000Z,723.35
2017-01-11T12:05:23.976Z,723.45
2017-01-11T12:06:23.952Z,723.45
2017-01-11T12:07:23.929Z,723.28
2017-01-11T12:08:23.906Z,723.46
2017-01-11T12:09:23.884Z,723.37
2017-01-11T12:10:23.865Z,723.34
2017-01-11T12:11:23.838Z,723.32
2017-01-11T12:12:23.815Z,723.47
2017-01-11T12:13:23.796Z,723.3
2017-01-11T12:14:23.774Z,723.5
2017-01-11T12:15:23.748Z,723.21
2017-01-11T12:16:23.729Z,723.34
2017-01-11T12:17:23.704Z,723.34
2017-01-11T12:18:23.684Z,723.37
2017-01-11T12:19:23.658Z,723.2
2017-01-11T12:20:23.636Z,723.01
2017-01-11T12:21:23.612Z,723.33
2017-01-11T12:22:23.592Z,723.33
2017-01-11T12:23:23.570Z,723.3
2017-01-11T12:24:23.544Z,723.02
2017-01-11T12:25:23.523Z,723.42
2017-01-11T12:26:23.497Z,723.49
2017-01-11T12:27:23.475Z,723.41
2017-01-11T12:28:23.454Z,723.41
2017-01-11T12:29:23.430Z,723.19
2017-01-11T12:30:23.407Z,723.17
2017-01-11T12:31:23.380Z,723.26